sensor_id;sensor_type;location;lat;lon;timestamp;pressure;altitude;pressure_sealevel;temperature;humidity
9307;BME280;4691;47.612;7.610;2023-01-26T00:01:18;98790.50;;;1.55;100.00
9307;BME280;4691;47.612;7.610;2023-01-26T00:03:44;98784.44;;;1.53;100.00
9307;BME280;4691;47.612;7.610;2023-01-26T00:06:12;98793.94;;;1.57;100.00
9307;BME280;4691;47.612;7.610;2023-01-26T00:08:39;98789.75;;;1.51;100.00
9307;BME280;4691;47.612;7.610;2023-01-26T00:11:06;98799.31;;;1.54;100.00
9307;BME280;4691;47.612;7.610;2023-01-26T00:13:33;98801.41;;;1.46;100.00
9307;BME280;4691;47.612;7.610;2023-01-26T00:15:59;98791.47;;;1.52;100.00
9307;BME280;4691;47.612;7.610;2023-01-26T00:18:24;98791.47;;;1.52;100.00
9307;BME280;4691;47.612;7.610;2023-01-26T00:21:01;98790.88;;;1.46;100.00
9307;BME280;4691;47.612;7.610;2023-01-26T00:23:28;98788.91;;;1.51;100.00
9307;BME280;4691;47.612;7.610;2023-01-26T00:25:53;98788.09;;;1.49;100.00
9307;BME280;4691;47.612;7.610;2023-01-26T00:28:19;98787.19;;;1.50;100.00
9307;BME280;4691;47.612;7.610;2023-01-26T00:30:44;98780.28;;;1.47;100.00
9307;BME280;4691;47.612;7.610;2023-01-26T00:33:09;98776.88;;;1.44;100.00
9307;BME280;4691;47.612;7.610;2023-01-26T00:35:35;98773.50;;;1.42;100.00
9307;BME280;4691;47.612;7.610;2023-01-26T00:38:00;98775.31;;;1.40;100.00
9307;BME280;4691;47.612;7.610;2023-01-26T00:40:26;98778.84;;;1.39;100.00
9307;BME280;4691;47.612;7.610;2023-01-26T00:42:51;98778.31;;;1.30;100.00
9307;BME280;4691;47.612;7.610;2023-01-26T00:45:21;98776.31;;;1.37;100.00
9307;BME280;4691;47.612;7.610;2023-01-26T00:47:47;98770.06;;;1.40;100.00
9307;BME280;4691;47.612;7.610;2023-01-26T00:50:13;98763.97;;;1.38;100.00
9307;BME280;4691;47.612;7.610;2023-01-26T00:52:38;98761.34;;;1.38;100.00
9307;BME280;4691;47.612;7.610;2023-01-26T00:55:04;98756.78;;;1.41;100.00
9307;BME280;4691;47.612;7.610;2023-01-26T00:57:29;98763.00;;;1.40;100.00
9307;BME280;4691;47.612;7.610;2023-01-26T00:59:55;98754.25;;;1.40;100.00
9307;BME280;4691;47.612;7.610;2023-01-26T01:02:20;98754.25;;;1.40;100.00
9307;BME280;4691;47.612;7.610;2023-01-26T01:04:46;98760.63;;;1.34;100.00
9307;BME280;4691;47.612;7.610;2023-01-26T01:07:11;98765.69;;;1.39;100.00
9307;BME280;4691;47.612;7.610;2023-01-26T01:09:36;98770.09;;;1.38;100.00
9307;BME280;4691;47.612;7.610;2023-01-26T01:12:02;98766.63;;;1.38;100.00
9307;BME280;4691;47.612;7.610;2023-01-26T01:14:27;98767.47;;;1.38;100.00
9307;BME280;4691;47.612;7.610;2023-01-26T01:16:53;98774.72;;;1.33;100.00
9307;BME280;4691;47.612;7.610;2023-01-26T01:19:18;98778.41;;;1.29;100.00
9307;BME280;4691;47.612;7.610;2023-01-26T01:21:49;98779.94;;;1.35;100.00
9307;BME280;4691;47.612;7.610;2023-01-26T01:24:14;98790.72;;;1.28;100.00
9307;BME280;4691;47.612;7.610;2023-01-26T01:26:40;98797.66;;;1.31;100.00
9307;BME280;4691;47.612;7.610;2023-01-26T01:29:06;98805.78;;;1.25;100.00
9307;BME280;4691;47.612;7.610;2023-01-26T01:31:32;98803.22;;;1.23;100.00
9307;BME280;4691;47.612;7.610;2023-01-26T01:33:57;98809.25;;;1.25;100.00
9307;BME280;4691;47.612;7.610;2023-01-26T01:36:23;98800.91;;;1.36;100.00
9307;BME280;4691;47.612;7.610;2023-01-26T01:38:49;98803.09;;;1.26;100.00
9307;BME280;4691;47.612;7.610;2023-01-26T01:41:18;98809.22;;;1.27;100.00
9307;BME280;4691;47.612;7.610;2023-01-26T01:43:47;98805.59;;;1.29;100.00
9307;BME280;4691;47.612;7.610;2023-01-26T01:46:33;98810.06;;;1.27;100.00
9307;BME280;4691;47.612;7.610;2023-01-26T01:49:03;98815.34;;;1.27;100.00
9307;BME280;4691;47.612;7.610;2023-01-26T01:51:37;98808.28;;;1.28;100.00
9307;BME280;4691;47.612;7.610;2023-01-26T01:54:09;98820.72;;;1.24;100.00
9307;BME280;4691;47.612;7.610;2023-01-26T01:56:39;98816.13;;;1.29;100.00
9307;BME280;4691;47.612;7.610;2023-01-26T01:59:07;98827.72;;;1.25;100.00
9307;BME280;4691;47.612;7.610;2023-01-26T02:01:34;98828.38;;;1.30;100.00
9307;BME280;4691;47.612;7.610;2023-01-26T02:04:03;98835.75;;;1.22;100.00
9307;BME280;4691;47.612;7.610;2023-01-26T02:06:39;98841.00;;;1.22;100.00
9307;BME280;4691;47.612;7.610;2023-01-26T02:09:07;98848.69;;;1.28;100.00
9307;BME280;4691;47.612;7.610;2023-01-26T02:11:55;98856.00;;;1.20;100.00
9307;BME280;4691;47.612;7.610;2023-01-26T02:14:21;98860.25;;;1.24;100.00
9307;BME280;4691;47.612;7.610;2023-01-26T02:16:46;98860.25;;;1.24;100.00
9307;BME280;4691;47.612;7.610;2023-01-26T02:19:26;98859.31;;;1.25;100.00
9307;BME280;4691;47.612;7.610;2023-01-26T02:21:54;98866.50;;;1.22;100.00
9307;BME280;4691;47.612;7.610;2023-01-26T02:24:25;98867.22;;;1.25;100.00
9307;BME280;4691;47.612;7.610;2023-01-26T02:26:55;98867.47;;;1.19;100.00
9307;BME280;4691;47.612;7.610;2023-01-26T02:29:21;98870.09;;;1.19;100.00
9307;BME280;4691;47.612;7.610;2023-01-26T02:31:47;98858.56;;;1.23;100.00
9307;BME280;4691;47.612;7.610;2023-01-26T02:34:13;98863.88;;;1.22;100.00
9307;BME280;4691;47.612;7.610;2023-01-26T02:36:38;98866.50;;;1.22;100.00
9307;BME280;4691;47.612;7.610;2023-01-26T02:41:52;98874.56;;;1.17;100.00
9307;BME280;4691;47.612;7.610;2023-01-26T02:44:38;98868.97;;;1.26;100.00
9307;BME280;4691;47.612;7.610;2023-01-26T02:47:15;98868.59;;;1.14;100.00
9307;BME280;4691;47.612;7.610;2023-01-26T02:49:41;98859.56;;;1.19;100.00
9307;BME280;4691;47.612;7.610;2023-01-26T02:52:16;98845.72;;;1.14;100.00
9307;BME280;4691;47.612;7.610;2023-01-26T02:54:42;98853.28;;;1.23;100.00
9307;BME280;4691;47.612;7.610;2023-01-26T02:57:33;98844.56;;;1.21;100.00
9307;BME280;4691;47.612;7.610;2023-01-26T03:00:11;98835.16;;;1.16;100.00
9307;BME280;4691;47.612;7.610;2023-01-26T03:02:37;98822.88;;;1.15;100.00
9307;BME280;4691;47.612;7.610;2023-01-26T03:05:09;98817.69;;;1.13;100.00
9307;BME280;4691;47.612;7.610;2023-01-26T03:07:35;98819.34;;;1.16;100.00
9307;BME280;4691;47.612;7.610;2023-01-26T03:10:00;98817.84;;;1.08;100.00
9307;BME280;4691;47.612;7.610;2023-01-26T03:12:31;98807.81;;;1.18;100.00
9307;BME280;4691;47.612;7.610;2023-01-26T03:14:57;98801.06;;;1.11;100.00
9307;BME280;4691;47.612;7.610;2023-01-26T03:19:46;98774.56;;;1.16;100.00
9307;BME280;4691;47.612;7.610;2023-01-26T03:22:39;98782.63;;;1.11;100.00
9307;BME280;4691;47.612;7.610;2023-01-26T03:25:31;98778.28;;;1.10;100.00
9307;BME280;4691;47.612;7.610;2023-01-26T03:28:24;98780.13;;;1.08;100.00
9307;BME280;4691;47.612;7.610;2023-01-26T03:30:51;98781.72;;;1.12;100.00
9307;BME280;4691;47.612;7.610;2023-01-26T03:33:18;98786.97;;;1.12;100.00
9307;BME280;4691;47.612;7.610;2023-01-26T03:35:43;98781.59;;;1.15;100.00
9307;BME280;4691;47.612;7.610;2023-01-26T03:38:09;98784.28;;;1.14;100.00
9307;BME280;4691;47.612;7.610;2023-01-26T03:40:34;98775.63;;;1.10;100.00
9307;BME280;4691;47.612;7.610;2023-01-26T03:43:19;98772.34;;;1.05;100.00
9307;BME280;4691;47.612;7.610;2023-01-26T03:46:03;98773.81;;;1.12;100.00
9307;BME280;4691;47.612;7.610;2023-01-26T03:48:48;98773.09;;;1.08;100.00
9307;BME280;4691;47.612;7.610;2023-01-26T03:51:31;98774.88;;;1.08;100.00
9307;BME280;4691;47.612;7.610;2023-01-26T03:54:15;98782.78;;;1.08;100.00
9307;BME280;4691;47.612;7.610;2023-01-26T03:56:59;98792.50;;;1.06;100.00
9307;BME280;4691;47.612;7.610;2023-01-26T03:59:24;98792.56;;;1.04;100.00
9307;BME280;4691;47.612;7.610;2023-01-26T04:02:03;98797.63;;;1.09;100.00
9307;BME280;4691;47.612;7.610;2023-01-26T04:04:48;98799.72;;;1.01;100.00
9307;BME280;4691;47.612;7.610;2023-01-26T04:07:32;98796.03;;;1.05;100.00
9307;BME280;4691;47.612;7.610;2023-01-26T04:10:16;98809.88;;;1.10;100.00
9307;BME280;4691;47.612;7.610;2023-01-26T04:12:41;98810.00;;;1.07;100.00
9307;BME280;4691;47.612;7.610;2023-01-26T04:15:07;98803.09;;;1.04;100.00
9307;BME280;4691;47.612;7.610;2023-01-26T04:17:51;98809.09;;;1.08;100.00
9307;BME280;4691;47.612;7.610;2023-01-26T04:20:38;98814.09;;;0.92;100.00
9307;BME280;4691;47.612;7.610;2023-01-26T04:23:40;98801.56;;;0.99;100.00
9307;BME280;4691;47.612;7.610;2023-01-26T04:26:11;98798.78;;;1.02;100.00
9307;BME280;4691;47.612;7.610;2023-01-26T04:28:36;98802.34;;;1.01;100.00
9307;BME280;4691;47.612;7.610;2023-01-26T04:31:02;98801.69;;;0.96;100.00
9307;BME280;4691;47.612;7.610;2023-01-26T04:33:28;98797.09;;;1.01;100.00
9307;BME280;4691;47.612;7.610;2023-01-26T04:35:54;98790.03;;;1.01;100.00
9307;BME280;4691;47.612;7.610;2023-01-26T04:38:19;98778.66;;;1.01;100.00
9307;BME280;4691;47.612;7.610;2023-01-26T04:40:51;98778.03;;;0.94;100.00
9307;BME280;4691;47.612;7.610;2023-01-26T04:43:17;98762.84;;;1.01;100.00
9307;BME280;4691;47.612;7.610;2023-01-26T04:45:42;98770.88;;;0.98;100.00
9307;BME280;4691;47.612;7.610;2023-01-26T04:48:07;98771.59;;;1.01;100.00
9307;BME280;4691;47.612;7.610;2023-01-26T04:50:33;98760.28;;;0.99;100.00
9307;BME280;4691;47.612;7.610;2023-01-26T04:52:58;98750.72;;;0.97;100.00
9307;BME280;4691;47.612;7.610;2023-01-26T04:55:23;98747.28;;;0.95;100.00
9307;BME280;4691;47.612;7.610;2023-01-26T04:57:48;98745.28;;;1.01;100.00
9307;BME280;4691;47.612;7.610;2023-01-26T05:00:14;98750.13;;;0.90;100.00
9307;BME280;4691;47.612;7.610;2023-01-26T05:02:39;98742.03;;;0.95;100.00
9307;BME280;4691;47.612;7.610;2023-01-26T05:05:05;98752.50;;;0.96;100.00
9307;BME280;4691;47.612;7.610;2023-01-26T05:07:30;98748.22;;;0.94;100.00
9307;BME280;4691;47.612;7.610;2023-01-26T05:09:56;98745.59;;;0.94;100.00
9307;BME280;4691;47.612;7.610;2023-01-26T05:12:21;98750.84;;;0.94;100.00
9307;BME280;4691;47.612;7.610;2023-01-26T05:14:58;98742.91;;;0.95;100.00
9307;BME280;4691;47.612;7.610;2023-01-26T05:17:23;98743.00;;;0.92;100.00
9307;BME280;4691;47.612;7.610;2023-01-26T05:19:49;98746.44;;;0.94;100.00
9307;BME280;4691;47.612;7.610;2023-01-26T05:22:14;98744.88;;;0.90;100.00
9307;BME280;4691;47.612;7.610;2023-01-26T05:24:39;98748.34;;;0.91;100.00
9307;BME280;4691;47.612;7.610;2023-01-26T05:27:05;98753.75;;;0.88;100.00
9307;BME280;4691;47.612;7.610;2023-01-26T05:29:45;98754.50;;;0.90;100.00
9307;BME280;4691;47.612;7.610;2023-01-26T05:32:10;98758.50;;;1.00;100.00
9307;BME280;4691;47.612;7.610;2023-01-26T05:34:36;98766.91;;;0.88;100.00
9307;BME280;4691;47.612;7.610;2023-01-26T05:37:01;98773.81;;;0.90;100.00
9307;BME280;4691;47.612;7.610;2023-01-26T05:39:26;98773.75;;;0.92;100.00
9307;BME280;4691;47.612;7.610;2023-01-26T05:41:52;98774.03;;;0.84;100.00
9307;BME280;4691;47.612;7.610;2023-01-26T05:44:20;98779.13;;;0.89;100.00
9307;BME280;4691;47.612;7.610;2023-01-26T05:46:45;98777.44;;;0.88;100.00
9307;BME280;4691;47.612;7.610;2023-01-26T05:49:11;98775.47;;;0.93;100.00
9307;BME280;4691;47.612;7.610;2023-01-26T05:51:36;98778.03;;;0.94;100.00
9307;BME280;4691;47.612;7.610;2023-01-26T05:54:01;98787.84;;;0.91;100.00
9307;BME280;4691;47.612;7.610;2023-01-26T05:56:27;98797.56;;;0.89;100.00
9307;BME280;4691;47.612;7.610;2023-01-26T05:58:52;98802.78;;;0.90;100.00
9307;BME280;4691;47.612;7.610;2023-01-26T06:01:17;98812.56;;;0.86;100.00
9307;BME280;4691;47.612;7.610;2023-01-26T06:03:42;98810.97;;;0.82;100.00
9307;BME280;4691;47.612;7.610;2023-01-26T06:06:08;98811.88;;;0.81;100.00
9307;BME280;4691;47.612;7.610;2023-01-26T06:08:33;98806.69;;;0.80;100.00
9307;BME280;4691;47.612;7.610;2023-01-26T06:10:59;98815.34;;;0.82;100.00
9307;BME280;4691;47.612;7.610;2023-01-26T06:13:25;98814.50;;;0.81;100.00
9307;BME280;4691;47.612;7.610;2023-01-26T06:15:50;98813.69;;;0.79;100.00
9307;BME280;4691;47.612;7.610;2023-01-26T06:18:16;98816.34;;;0.79;100.00
9307;BME280;4691;47.612;7.610;2023-01-26T06:20:41;98812.94;;;0.77;100.00
9307;BME280;4691;47.612;7.610;2023-01-26T06:23:06;98819.22;;;0.73;100.00
9307;BME280;4691;47.612;7.610;2023-01-26T06:25:36;98816.63;;;0.72;100.00
9307;BME280;4691;47.612;7.610;2023-01-26T06:28:12;98820.16;;;0.72;100.00
9307;BME280;4691;47.612;7.610;2023-01-26T06:30:37;98821.81;;;0.75;100.00
9307;BME280;4691;47.612;7.610;2023-01-26T06:33:02;98824.31;;;0.78;100.00
9307;BME280;4691;47.612;7.610;2023-01-26T06:35:28;98816.72;;;0.70;100.00
9307;BME280;4691;47.612;7.610;2023-01-26T06:37:53;98813.03;;;0.74;100.00
9307;BME280;4691;47.612;7.610;2023-01-26T06:40:18;98811.31;;;0.73;100.00
9307;BME280;4691;47.612;7.610;2023-01-26T06:42:50;98814.06;;;0.70;100.00
9307;BME280;4691;47.612;7.610;2023-01-26T06:45:16;98801.72;;;0.72;100.00
9307;BME280;4691;47.612;7.610;2023-01-26T06:47:48;98803.75;;;0.64;100.00
9307;BME280;4691;47.612;7.610;2023-01-26T06:50:19;98806.31;;;0.67;100.00
9307;BME280;4691;47.612;7.610;2023-01-26T06:52:50;98794.28;;;0.60;100.00
9307;BME280;4691;47.612;7.610;2023-01-26T06:55:20;98789.47;;;0.71;100.00
9307;BME280;4691;47.612;7.610;2023-01-26T06:57:46;98786.16;;;0.66;100.00
9307;BME280;4691;47.612;7.610;2023-01-26T07:00:12;98782.16;;;0.56;100.00
9307;BME280;4691;47.612;7.610;2023-01-26T07:02:38;98772.25;;;0.62;100.00
9307;BME280;4691;47.612;7.610;2023-01-26T07:05:04;98767.00;;;0.62;100.00
9307;BME280;4691;47.612;7.610;2023-01-26T07:07:29;98759.91;;;0.64;100.00
9307;BME280;4691;47.612;7.610;2023-01-26T07:09:54;98754.72;;;0.61;100.00
9307;BME280;4691;47.612;7.610;2023-01-26T07:12:20;98753.75;;;0.64;100.00
9307;BME280;4691;47.612;7.610;2023-01-26T07:14:45;98747.81;;;0.59;100.00
9307;BME280;4691;47.612;7.610;2023-01-26T07:17:11;98742.50;;;0.60;100.00
9307;BME280;4691;47.612;7.610;2023-01-26T07:19:36;98745.09;;;0.62;100.00
9307;BME280;4691;47.612;7.610;2023-01-26T07:22:02;98752.97;;;0.62;100.00
9307;BME280;4691;47.612;7.610;2023-01-26T07:24:28;98749.59;;;0.58;100.00
9307;BME280;4691;47.612;7.610;2023-01-26T07:26:54;98747.63;;;0.63;100.00
9307;BME280;4691;47.612;7.610;2023-01-26T07:29:19;98748.63;;;0.61;100.00
9307;BME280;4691;47.612;7.610;2023-01-26T07:31:45;98760.75;;;0.65;100.00
9307;BME280;4691;47.612;7.610;2023-01-26T07:34:10;98762.47;;;0.66;100.00
9307;BME280;4691;47.612;7.610;2023-01-26T07:36:36;98769.66;;;0.61;100.00
9307;BME280;4691;47.612;7.610;2023-01-26T07:39:01;98763.56;;;0.60;100.00
9307;BME280;4691;47.612;7.610;2023-01-26T07:41:26;98775.78;;;0.61;100.00
9307;BME280;4691;47.612;7.610;2023-01-26T07:43:52;98773.09;;;0.63;100.00
9307;BME280;4691;47.612;7.610;2023-01-26T07:46:17;98774.59;;;0.70;100.00
9307;BME280;4691;47.612;7.610;2023-01-26T07:48:42;98778.88;;;0.73;100.00
9307;BME280;4691;47.612;7.610;2023-01-26T07:51:08;98788.84;;;0.64;100.00
9307;BME280;4691;47.612;7.610;2023-01-26T07:53:35;98796.53;;;0.69;100.00
9307;BME280;4691;47.612;7.610;2023-01-26T07:56:13;98804.69;;;0.63;100.00
9307;BME280;4691;47.612;7.610;2023-01-26T07:58:40;98813.28;;;0.68;100.00
9307;BME280;4691;47.612;7.610;2023-01-26T08:01:10;98825.47;;;0.71;100.00
9307;BME280;4691;47.612;7.610;2023-01-26T08:03:36;98828.72;;;0.77;100.00
9307;BME280;4691;47.612;7.610;2023-01-26T08:06:02;98840.50;;;0.91;100.00
9307;BME280;4691;47.612;7.610;2023-01-26T08:08:27;98846.34;;;0.75;100.00
9307;BME280;4691;47.612;7.610;2023-01-26T08:11:00;98847.94;;;0.79;100.00
9307;BME280;4691;47.612;7.610;2023-01-26T08:13:26;98848.63;;;0.84;100.00
9307;BME280;4691;47.612;7.610;2023-01-26T08:15:52;98851.25;;;0.84;100.00
9307;BME280;4691;47.612;7.610;2023-01-26T08:18:17;98851.03;;;0.91;100.00
9307;BME280;4691;47.612;7.610;2023-01-26T08:20:53;98852.22;;;0.82;100.00
9307;BME280;4691;47.612;7.610;2023-01-26T08:23:19;98853.81;;;0.86;100.00
9307;BME280;4691;47.612;7.610;2023-01-26T08:25:45;98861.03;;;0.81;100.00
9307;BME280;4691;47.612;7.610;2023-01-26T08:28:10;98849.28;;;0.90;100.00
9307;BME280;4691;47.612;7.610;2023-01-26T08:30:36;98857.09;;;0.93;100.00
9307;BME280;4691;47.612;7.610;2023-01-26T08:33:02;98852.72;;;0.92;100.00
9307;BME280;4691;47.612;7.610;2023-01-26T08:35:30;98854.56;;;0.90;100.00
9307;BME280;4691;47.612;7.610;2023-01-26T08:37:55;98859.09;;;0.86;100.00
9307;BME280;4691;47.612;7.610;2023-01-26T08:40:21;98862.53;;;0.88;100.00
9307;BME280;4691;47.612;7.610;2023-01-26T08:42:46;98860.19;;;0.80;100.00
9307;BME280;4691;47.612;7.610;2023-01-26T08:45:11;98851.88;;;0.91;100.00
9307;BME280;4691;47.612;7.610;2023-01-26T08:47:36;98857.31;;;0.86;100.00
9307;BME280;4691;47.612;7.610;2023-01-26T08:50:02;98854.09;;;1.02;100.00
9307;BME280;4691;47.612;7.610;2023-01-26T08:52:28;98851.28;;;1.06;100.00
9307;BME280;4691;47.612;7.610;2023-01-26T08:54:53;98855.31;;;1.15;100.00
9307;BME280;4691;47.612;7.610;2023-01-26T08:57:18;98874.34;;;1.00;100.00
9307;BME280;4691;47.612;7.610;2023-01-26T08:59:44;98873.47;;;1.01;100.00
9307;BME280;4691;47.612;7.610;2023-01-26T09:02:09;98874.94;;;1.08;100.00
9307;BME280;4691;47.612;7.610;2023-01-26T09:04:35;98879.41;;;1.06;100.00
9307;BME280;4691;47.612;7.610;2023-01-26T09:07:00;98878.59;;;1.04;100.00
9307;BME280;4691;47.612;7.610;2023-01-26T09:09:26;98873.72;;;1.17;100.00
9307;BME280;4691;47.612;7.610;2023-01-26T09:11:54;98878.94;;;1.18;100.00
9307;BME280;4691;47.612;7.610;2023-01-26T09:14:19;98878.81;;;1.21;100.00
9307;BME280;4691;47.612;7.610;2023-01-26T09:16:45;98894.66;;;1.20;100.00
9307;BME280;4691;47.612;7.610;2023-01-26T09:19:10;98892.59;;;1.28;100.00
9307;BME280;4691;47.612;7.610;2023-01-26T09:21:35;98893.94;;;1.38;100.00
9307;BME280;4691;47.612;7.610;2023-01-26T09:24:01;98901.81;;;1.40;100.00
9307;BME280;4691;47.612;7.610;2023-01-26T09:26:28;98917.13;;;1.52;100.00
9307;BME280;4691;47.612;7.610;2023-01-26T09:28:53;98924.97;;;1.32;100.00
9307;BME280;4691;47.612;7.610;2023-01-26T09:31:19;98928.03;;;1.43;100.00
9307;BME280;4691;47.612;7.610;2023-01-26T09:33:44;98941.22;;;1.19;100.00
9307;BME280;4691;47.612;7.610;2023-01-26T09:36:10;98933.56;;;1.37;100.00
9307;BME280;4691;47.612;7.610;2023-01-26T09:38:36;98948.69;;;1.32;100.00
9307;BME280;4691;47.612;7.610;2023-01-26T09:41:19;98957.00;;;1.21;100.00
9307;BME280;4691;47.612;7.610;2023-01-26T09:43:55;98966.59;;;1.22;100.00
9307;BME280;4691;47.612;7.610;2023-01-26T09:46:24;98972.84;;;1.19;100.00
9307;BME280;4691;47.612;7.610;2023-01-26T09:49:08;98977.66;;;1.32;100.00
9307;BME280;4691;47.612;7.610;2023-01-26T09:51:39;98980.63;;;1.22;100.00
9307;BME280;4691;47.612;7.610;2023-01-26T09:54:45;98985.31;;;1.14;100.00
9307;BME280;4691;47.612;7.610;2023-01-26T09:57:15;98985.03;;;1.22;100.00
9307;BME280;4691;47.612;7.610;2023-01-26T09:59:47;98982.53;;;1.19;100.00
9307;BME280;4691;47.612;7.610;2023-01-26T10:05:05;98982.44;;;1.20;100.00
9307;BME280;4691;47.612;7.610;2023-01-26T10:07:32;98979.09;;;1.17;100.00
9307;BME280;4691;47.612;7.610;2023-01-26T10:09:58;98982.84;;;1.09;100.00
9307;BME280;4691;47.612;7.610;2023-01-26T10:12:30;98977.81;;;1.27;100.00
9307;BME280;4691;47.612;7.610;2023-01-26T10:15:18;98974.91;;;1.11;100.00
9307;BME280;4691;47.612;7.610;2023-01-26T10:17:48;98971.31;;;1.14;100.00
9307;BME280;4691;47.612;7.610;2023-01-26T10:22:43;98970.22;;;0.96;100.00
9307;BME280;4691;47.612;7.610;2023-01-26T10:25:26;98976.03;;;1.04;100.00
9307;BME280;4691;47.612;7.610;2023-01-26T10:27:53;98975.63;;;0.91;100.00
9307;BME280;4691;47.612;7.610;2023-01-26T10:30:19;98969.69;;;0.86;100.00
9307;BME280;4691;47.612;7.610;2023-01-26T10:32:47;98969.69;;;0.86;100.00
9307;BME280;4691;47.612;7.610;2023-01-26T10:35:17;98966.66;;;0.97;100.00
9307;BME280;4691;47.612;7.610;2023-01-26T10:37:44;98962.06;;;0.78;100.00
9307;BME280;4691;47.612;7.610;2023-01-26T10:40:10;98962.47;;;0.91;100.00
9307;BME280;4691;47.612;7.610;2023-01-26T10:42:36;98955.41;;;0.92;100.00
9307;BME280;4691;47.612;7.610;2023-01-26T10:45:05;98958.44;;;0.81;100.00
9307;BME280;4691;47.612;7.610;2023-01-26T10:47:31;98962.59;;;0.88;100.00
9307;BME280;4691;47.612;7.610;2023-01-26T10:50:20;98962.22;;;0.97;100.00
9307;BME280;4691;47.612;7.610;2023-01-26T10:53:00;98961.31;;;0.75;100.00
9307;BME280;4691;47.612;7.610;2023-01-26T10:55:27;98963.56;;;0.85;100.00
9307;BME280;4691;47.612;7.610;2023-01-26T10:57:52;98962.22;;;0.97;100.00
9307;BME280;4691;47.612;7.610;2023-01-26T11:02:50;98964.53;;;0.83;100.00
9307;BME280;4691;47.612;7.610;2023-01-26T11:05:25;98963.56;;;0.85;100.00
9307;BME280;4691;47.612;7.610;2023-01-26T11:07:53;98966.75;;;0.94;100.00
9307;BME280;4691;47.612;7.610;2023-01-26T11:13:14;98965.25;;;0.86;100.00
9307;BME280;4691;47.612;7.610;2023-01-26T11:15:46;98955.59;;;0.87;100.00
9307;BME280;4691;47.612;7.610;2023-01-26T11:20:58;98944.00;;;0.93;100.00
9307;BME280;4691;47.612;7.610;2023-01-26T11:23:36;98947.31;;;0.98;100.00
9307;BME280;4691;47.612;7.610;2023-01-26T11:32:12;98942.78;;;1.01;100.00
9307;BME280;4691;47.612;7.610;2023-01-26T11:37:35;98946.56;;;0.94;100.00
9307;BME280;4691;47.612;7.610;2023-01-26T11:43:20;98950.22;;;0.90;100.00
9307;BME280;4691;47.612;7.610;2023-01-26T11:48:22;98944.31;;;0.83;100.00
9307;BME280;4691;47.612;7.610;2023-01-26T11:50:56;98947.41;;;0.95;100.00
9307;BME280;4691;47.612;7.610;2023-01-26T11:56:43;98935.59;;;0.81;100.00
9307;BME280;4691;47.612;7.610;2023-01-26T11:59:16;98944.06;;;0.90;100.00
9307;BME280;4691;47.612;7.610;2023-01-26T12:01:48;98938.47;;;0.75;100.00
9307;BME280;4691;47.612;7.610;2023-01-26T12:04:18;98933.09;;;1.02;100.00
9307;BME280;4691;47.612;7.610;2023-01-26T12:06:47;98929.94;;;0.92;100.00
9307;BME280;4691;47.612;7.610;2023-01-26T12:09:40;98924.41;;;1.00;100.00
9307;BME280;4691;47.612;7.610;2023-01-26T12:12:24;98926.75;;;1.07;100.00
9307;BME280;4691;47.612;7.610;2023-01-26T12:15:05;98924.75;;;0.91;100.00
9307;BME280;4691;47.612;7.610;2023-01-26T12:20:45;98921.56;;;0.82;100.00
9307;BME280;4691;47.612;7.610;2023-01-26T12:23:25;98916.63;;;0.97;100.00
9307;BME280;4691;47.612;7.610;2023-01-26T12:25:58;98909.75;;;0.93;100.00
9307;BME280;4691;47.612;7.610;2023-01-26T12:28:36;98910.25;;;1.02;100.00
9307;BME280;4691;47.612;7.610;2023-01-26T12:31:17;98907.97;;;0.93;100.00
9307;BME280;4691;47.612;7.610;2023-01-26T12:33:46;98905.84;;;0.79;100.00
9307;BME280;4691;47.612;7.610;2023-01-26T12:36:34;98900.13;;;0.92;100.00
9307;BME280;4691;47.612;7.610;2023-01-26T12:42:03;98900.97;;;0.92;100.00
9307;BME280;4691;47.612;7.610;2023-01-26T12:44:39;98885.47;;;1.08;100.00
9307;BME280;4691;47.612;7.610;2023-01-26T12:49:58;98895.50;;;0.98;100.00
9307;BME280;4691;47.612;7.610;2023-01-26T12:52:34;98899.78;;;1.01;100.00
9307;BME280;4691;47.612;7.610;2023-01-26T12:55:19;98893.38;;;0.84;100.00
9307;BME280;4691;47.612;7.610;2023-01-26T12:57:50;98901.56;;;1.00;100.00
9307;BME280;4691;47.612;7.610;2023-01-26T13:00:38;98900.13;;;0.92;100.00
9307;BME280;4691;47.612;7.610;2023-01-26T13:05:34;98895.91;;;1.11;100.00
9307;BME280;4691;47.612;7.610;2023-01-26T13:11:02;98904.13;;;0.78;100.00
9307;BME280;4691;47.612;7.610;2023-01-26T13:13:56;98899.53;;;0.85;100.00
9307;BME280;4691;47.612;7.610;2023-01-26T13:18:54;98904.94;;;1.04;100.00
9307;BME280;4691;47.612;7.610;2023-01-26T13:26:47;98909.84;;;0.90;100.00
9307;BME280;4691;47.612;7.610;2023-01-26T13:31:44;98900.53;;;0.81;100.00
9307;BME280;4691;47.612;7.610;2023-01-26T13:34:10;98907.84;;;0.96;100.00
9307;BME280;4691;47.612;7.610;2023-01-26T13:36:40;98912.03;;;0.78;100.00
9307;BME280;4691;47.612;7.610;2023-01-26T13:41:45;98918.03;;;0.82;100.00
9307;BME280;4691;47.612;7.610;2023-01-26T13:44:22;98911.47;;;0.70;100.00
9307;BME280;4691;47.612;7.610;2023-01-26T13:46:59;98912.59;;;0.86;100.00
9307;BME280;4691;47.612;7.610;2023-01-26T13:49:41;98918.09;;;0.80;100.00
9307;BME280;4691;47.612;7.610;2023-01-26T13:52:18;98914.53;;;0.81;100.00
9307;BME280;4691;47.612;7.610;2023-01-26T13:54:45;98908.03;;;0.92;100.00
9307;BME280;4691;47.612;7.610;2023-01-26T13:57:11;98905.97;;;1.00;100.00
9307;BME280;4691;47.612;7.610;2023-01-26T14:00:09;98902.31;;;0.80;100.00
9307;BME280;4691;47.612;7.610;2023-01-26T14:02:35;98905.63;;;0.85;100.00
9307;BME280;4691;47.612;7.610;2023-01-26T14:05:03;98908.59;;;0.76;100.00
9307;BME280;4691;47.612;7.610;2023-01-26T14:07:35;98908.03;;;0.68;100.00
9307;BME280;4691;47.612;7.610;2023-01-26T14:10:03;98903.69;;;0.67;100.00
9307;BME280;4691;47.612;7.610;2023-01-26T14:14:59;98886.31;;;0.61;100.00
9307;BME280;4691;47.612;7.610;2023-01-26T14:17:45;98886.84;;;0.71;100.00
9307;BME280;4691;47.612;7.610;2023-01-26T14:25:34;98868.28;;;0.51;100.00
9307;BME280;4691;47.612;7.610;2023-01-26T14:28:00;98862.72;;;0.60;100.00
9307;BME280;4691;47.612;7.610;2023-01-26T14:30:30;98866.16;;;0.62;100.00
9307;BME280;4691;47.612;7.610;2023-01-26T14:33:06;98855.63;;;0.62;100.00
9307;BME280;4691;47.612;7.610;2023-01-26T14:35:35;98856.41;;;0.64;100.00
9307;BME280;4691;47.612;7.610;2023-01-26T14:40:35;98855.09;;;0.52;100.00
9307;BME280;4691;47.612;7.610;2023-01-26T14:43:00;98845.41;;;0.53;100.00
9307;BME280;4691;47.612;7.610;2023-01-26T14:45:30;98837.97;;;0.64;100.00
9307;BME280;4691;47.612;7.610;2023-01-26T14:48:02;98841.66;;;0.60;100.00
9307;BME280;4691;47.612;7.610;2023-01-26T14:50:30;98839.59;;;0.68;100.00